IKI weather

Iki Airport
Iki, Nagasaki Prefecture, Japan

Public forecast

Using degrees Celsius for public forecast. Weather courtesy of forecast.io.

Closest aviation weather report (METAR) to Iki Airport

Closest report is Fukuoka Airport, 34.7 nm (64.2 km) ESE. Retrieved 2020/07/07 10:30 UTC (51 seconds ago):

RJFF 071030Z 15012KT 9999 RA FEW005 SCT070 BKN100 22/21 Q1004 TEMPO 18018G28KT 3000 TSRA BR

Closest aviation forecast (TAF) to Iki Airport

Closest forecast is Fukuoka Airport, 34.7 nm (64.2 km) ESE. Retrieved 2020/07/07 06:41 UTC (4 hours ago):

TAF RJFF 070505Z 0706/0812 15013KT 7000 -SHRA FEW005 SCT010 BKN020 TEMPO 0709/0715 3000 TSRA BR FEW005 SCT010 BKN020 FEW020CB BECMG 0715/0717 30007KT TEMPO 0718/0800 FEW003 SCT005 BKN008